Time;durP1;ratioP1;P1;durP2;ratioP2;P2;SDS_P1;SDS_P2;PMS_P1;PMS_P2;Temp;Humidity;BMP_temperature;BMP_pressure;BME280_temperature;BME280_humidity;BME280_pressure;Samples;Min_cycle;Max_cycle;Signal;HPM_P1;HPM_P2
2022/06/23 00:01:26;;;;;;;28.17;13.50;;;17.80;99.90;;;;;;5009864;28;24108;-69
2022/06/23 00:03:56;;;;;;;18.23;12.88;;;17.70;99.90;;;;;;5007358;28;25190;-70
2022/06/23 00:06:41;;;;;;;18.33;12.95;;;17.80;99.90;;;;;;5003458;28;25086;-69
2022/06/23 00:09:38;;;;;;;19.00;12.98;;;17.70;99.90;;;;;;4998154;28;25050;-69
2022/06/23 00:12:37;;;;;;;21.33;13.88;;;17.60;99.90;;;;;;4973841;28;25058;-71
2022/06/23 00:15:02;;;;;;;18.02;13.30;;;17.70;99.90;;;;;;4996911;28;25074;-70
2022/06/23 00:17:44;;;;;;;16.02;11.18;;;17.60;99.90;;;;;;4997822;28;25064;-71
2022/06/23 00:20:10;;;;;;;23.00;12.10;;;17.60;99.90;;;;;;5003780;28;25080;-71
2022/06/23 00:22:41;;;;;;;19.63;12.13;;;17.70;99.90;;;;;;4995848;28;25113;-72
2022/06/23 00:25:11;;;;;;;20.23;13.23;;;17.60;99.90;;;;;;5001900;28;25187;-70
2022/06/23 00:27:40;;;;;;;18.65;11.38;;;17.50;99.90;;;;;;5002953;28;25074;-70
2022/06/23 00:30:38;;;;;;;17.73;12.27;;;17.50;99.90;;;;;;5000200;28;25062;-72
2022/06/23 00:33:16;;;;;;;20.33;12.30;;;17.40;99.90;;;;;;5001832;28;25150;-68
2022/06/23 00:35:41;;;;;;;20.20;12.07;;;17.40;99.90;;;;;;5005590;28;25052;-70
2022/06/23 00:38:43;;;;;;;16.67;12.13;;;17.30;99.90;;;;;;5004893;28;25075;-71
2022/06/23 00:41:18;;;;;;;18.52;11.18;;;17.30;99.90;;;;;;4998041;28;25110;-71
2022/06/23 00:43:46;;;;;;;18.48;11.90;;;17.40;99.90;;;;;;5016491;28;25058;-71
2022/06/23 00:46:26;;;;;;;20.20;10.85;;;17.30;99.90;;;;;;5004621;28;25064;-69
2022/06/23 00:49:02;;;;;;;19.33;11.02;;;17.30;99.90;;;;;;5008124;28;25097;-75
2022/06/23 00:51:36;;;;;;;21.73;11.82;;;17.30;99.90;;;;;;5013098;28;25072;-71
2022/06/23 00:54:14;;;;;;;22.00;11.35;;;17.20;99.90;;;;;;5017628;28;25084;-75
2022/06/23 00:56:58;;;;;;;21.75;11.27;;;17.20;99.90;;;;;;5006135;28;25094;-72
2022/06/23 00:59:38;;;;;;;22.13;10.75;;;17.30;99.90;;;;;;5002044;28;25055;-75
2022/06/23 01:02:16;;;;;;;17.83;10.82;;;17.30;99.90;;;;;;5010451;28;25064;-73
2022/06/23 01:05:00;;;;;;;15.48;10.82;;;17.30;99.90;;;;;;5005635;28;25092;-74
2022/06/23 01:07:58;;;;;;;20.08;11.38;;;17.30;99.90;;;;;;4999598;28;25098;-73
2022/06/23 01:10:46;;;;;;;19.00;11.38;;;17.20;99.90;;;;;;5002675;28;25088;-74
2022/06/23 01:13:36;;;;;;;19.80;11.45;;;17.20;99.90;;;;;;4986621;28;25105;-73
2022/06/23 01:16:10;;;;;;;18.23;11.35;;;17.20;99.90;;;;;;5000707;28;25097;-70
2022/06/23 01:18:41;;;;;;;18.45;11.02;;;17.10;99.90;;;;;;4991342;28;25138;-72
2022/06/23 01:21:21;;;;;;;19.17;10.27;;;17.10;99.90;;;;;;5003800;28;25066;-76
2022/06/23 01:23:53;;;;;;;19.30;10.63;;;17.20;99.90;;;;;;5003171;28;25073;-71
2022/06/23 01:26:19;;;;;;;14.32;11.10;;;17.10;99.90;;;;;;5004205;28;25129;-72
2022/06/23 01:28:45;;;;;;;16.80;10.73;;;17.10;99.90;;;;;;5008997;28;25147;-68
2022/06/23 01:31:23;;;;;;;19.30;9.80;;;17.10;99.90;;;;;;5010103;28;25065;-71
2022/06/23 01:34:09;;;;;;;17.25;11.30;;;17.00;99.90;;;;;;5005875;28;25074;-72
2022/06/23 01:36:46;;;;;;;17.30;11.10;;;17.00;99.90;;;;;;5003454;28;25156;-74
2022/06/23 01:39:20;;;;;;;15.43;12.10;;;17.00;99.90;;;;;;5006500;28;25062;-74
2022/06/23 01:41:56;;;;;;;17.88;11.40;;;17.00;99.90;;;;;;5026247;28;25147;-71
2022/06/23 01:44:26;;;;;;;22.27;10.60;;;16.90;99.90;;;;;;5005510;28;25110;-74
2022/06/23 01:46:55;;;;;;;22.15;11.73;;;16.90;99.90;;;;;;5004827;28;25129;-72
2022/06/23 01:49:26;;;;;;;25.65;10.98;;;16.80;99.90;;;;;;5005515;28;25107;-73
2022/06/23 01:51:54;;;;;;;21.45;12.13;;;16.70;99.90;;;;;;5011668;28;25054;-71
2022/06/23 01:54:19;;;;;;;16.80;11.55;;;16.70;99.90;;;;;;5003552;28;25130;-69
2022/06/23 01:57:13;;;;;;;17.50;10.65;;;16.80;99.90;;;;;;5010697;28;25051;-68
2022/06/23 02:00:03;;;;;;;22.90;11.50;;;16.70;99.90;;;;;;5009476;28;25097;-73
2022/06/23 02:02:52;;;;;;;17.80;12.30;;;16.60;99.90;;;;;;5011583;28;25058;-73
2022/06/23 02:05:52;;;;;;;19.48;11.68;;;16.60;99.90;;;;;;5003200;28;25151;-69
2022/06/23 02:08:34;;;;;;;23.20;11.48;;;16.60;99.90;;;;;;5015762;28;25076;-71
2022/06/23 02:11:20;;;;;;;;;;;16.50;99.90;;;;;;5003609;28;25108;-74
2022/06/23 02:13:55;;;;;;;17.45;10.90;;;16.60;99.90;;;;;;5006264;28;24116;-70
2022/06/23 02:16:37;;;;;;;19.52;10.60;;;16.60;99.90;;;;;;5007389;28;25071;-71
2022/06/23 02:19:20;;;;;;;23.05;11.45;;;16.60;99.90;;;;;;5015001;28;25067;-69
2022/06/23 02:22:02;;;;;;;19.17;11.30;;;16.50;99.90;;;;;;5010310;28;25068;-70
2022/06/23 02:24:50;;;;;;;16.55;11.63;;;16.50;99.90;;;;;;5004209;28;25062;-70
2022/06/23 02:27:29;;;;;;;15.85;10.52;;;16.50;99.90;;;;;;5014376;28;25118;-76
2022/06/23 02:30:04;;;;;;;21.90;10.88;;;16.50;99.90;;;;;;5006541;28;25080;-71
2022/06/23 02:32:38;;;;;;;24.02;11.65;;;16.50;99.90;;;;;;5007205;28;25109;-69
2022/06/23 02:35:15;;;;;;;21.65;13.02;;;16.50;99.90;;;;;;5013163;28;25090;-72
2022/06/23 02:37:44;;;;;;;18.52;11.77;;;16.40;99.90;;;;;;5008253;28;25110;-69
2022/06/23 02:40:29;;;;;;;16.65;11.35;;;16.30;99.90;;;;;;5009277;28;25081;-72
2022/06/23 02:43:31;;;;;;;18.50;12.50;;;16.40;99.90;;;;;;5011059;28;25059;-74
2022/06/23 02:46:21;;;;;;;23.92;11.77;;;16.40;99.90;;;;;;5009706;28;25089;-72
2022/06/23 02:48:57;;;;;;;18.75;11.20;;;16.30;99.90;;;;;;5014821;28;25145;-74
2022/06/23 02:51:29;;;;;;;18.27;12.00;;;16.40;99.90;;;;;;5002049;28;25146;-71
2022/06/23 02:54:16;;;;;;;17.40;11.88;;;16.30;99.90;;;;;;5016258;28;25081;-70
2022/06/23 02:57:01;;;;;;;21.17;11.55;;;16.30;99.90;;;;;;5007137;28;25164;-69
2022/06/23 02:59:52;;;;;;;20.13;11.30;;;16.30;99.90;;;;;;5011908;28;25103;-69
2022/06/23 03:02:21;;;;;;;24.70;12.23;;;16.30;99.90;;;;;;5010885;28;25153;-70
2022/06/23 03:04:55;;;;;;;16.38;10.52;;;16.30;99.90;;;;;;5015562;28;25087;-69
2022/06/23 03:07:27;;;;;;;16.75;11.93;;;16.30;99.90;;;;;;5007022;28;25054;-73
2022/06/23 03:10:21;;;;;;;15.70;11.30;;;16.30;99.90;;;;;;5012871;28;25094;-75
2022/06/23 03:12:55;;;;;;;18.15;11.57;;;16.30;99.90;;;;;;5029413;28;25047;-71
2022/06/23 03:15:29;;;;;;;16.10;11.38;;;16.40;99.90;;;;;;5015163;28;25070;-72
2022/06/23 03:18:22;;;;;;;21.27;12.75;;;16.30;99.90;;;;;;5006164;28;25148;-72
2022/06/23 03:21:27;;;;;;;20.00;11.48;;;16.10;99.90;;;;;;5010837;28;25073;-74
2022/06/23 03:24:04;;;;;;;18.75;11.63;;;16.10;99.90;;;;;;4944990;29;25065;-72
2022/06/23 03:26:45;;;;;;;18.17;12.45;;;16.10;99.90;;;;;;5001365;28;25065;-72
2022/06/23 03:29:36;;;;;;;25.42;12.05;;;16.00;99.90;;;;;;5016238;28;25092;-70
2022/06/23 03:32:09;;;;;;;19.15;11.70;;;16.00;99.90;;;;;;5008701;28;25097;-69
2022/06/23 03:34:46;;;;;;;21.75;12.23;;;16.00;99.90;;;;;;5004779;28;25066;-73
2022/06/23 03:37:22;;;;;;;22.27;13.15;;;15.90;99.90;;;;;;5012540;28;25072;-71
2022/06/23 03:42:53;;;;;;;17.50;11.63;;;15.90;99.90;;;;;;5001931;28;25140;-71
2022/06/23 03:45:51;;;;;;;20.83;12.25;;;15.90;99.90;;;;;;5006703;28;25247;-72
2022/06/23 03:48:54;;;;;;;16.65;11.98;;;16.00;99.90;;;;;;5023566;28;25102;-71
2022/06/23 03:51:23;;;;;;;16.70;12.05;;;16.00;99.90;;;;;;5010724;28;25046;-72
2022/06/23 03:54:31;;;;;;;19.63;11.38;;;16.00;99.90;;;;;;5023280;28;25103;-70
2022/06/23 03:57:03;;;;;;;22.73;12.52;;;16.00;99.90;;;;;;4967169;28;25072;-72
2022/06/23 03:59:50;;;;;;;22.05;12.57;;;15.90;99.90;;;;;;5002915;28;25058;-71
2022/06/23 04:02:24;;;;;;;19.38;11.85;;;16.00;99.90;;;;;;5006496;28;25142;-71
2022/06/23 04:05:14;;;;;;;17.52;11.88;;;16.00;99.90;;;;;;5020331;28;25086;-71
2022/06/23 04:07:49;;;;;;;17.50;11.48;;;16.10;99.90;;;;;;5007421;28;25068;-77
2022/06/23 04:10:23;;;;;;;14.18;11.30;;;16.10;99.90;;;;;;5015571;28;25078;-71
2022/06/23 04:12:54;;;;;;;15.68;12.20;;;16.10;99.90;;;;;;5009404;28;25097;-74
2022/06/23 04:15:35;;;;;;;17.13;12.27;;;16.10;99.90;;;;;;5007117;28;25070;-73
2022/06/23 04:18:07;;;;;;;19.48;11.18;;;16.20;99.90;;;;;;5012132;28;25116;-73
2022/06/23 04:20:47;;;;;;;17.27;10.98;;;16.10;99.90;;;;;;5022061;28;25105;-74
2022/06/23 04:23:33;;;;;;;20.25;11.60;;;16.10;99.90;;;;;;5022887;28;25095;-72
2022/06/23 04:26:18;;;;;;;26.40;12.27;;;16.10;99.90;;;;;;5004852;28;25070;-70
2022/06/23 04:29:05;;;;;;;20.98;11.82;;;16.10;99.90;;;;;;5006953;28;25118;-72
2022/06/23 04:31:36;;;;;;;15.65;12.52;;;16.20;99.90;;;;;;5009296;28;25061;-73
2022/06/23 04:34:02;;;;;;;17.50;11.05;;;16.20;99.90;;;;;;5015884;28;25048;-72
2022/06/23 04:36:32;;;;;;;18.15;12.10;;;16.20;99.90;;;;;;5017921;28;25071;-72
2022/06/23 04:39:14;;;;;;;18.45;11.65;;;16.20;99.90;;;;;;5004117;28;25048;-75
2022/06/23 04:42:14;;;;;;;21.20;12.32;;;16.10;99.90;;;;;;5010384;28;25105;-72
2022/06/23 04:44:49;;;;;;;23.73;12.25;;;16.20;99.90;;;;;;4996075;28;25060;-70
2022/06/23 04:47:25;;;;;;;20.10;11.98;;;16.30;99.90;;;;;;5012592;28;25089;-74
2022/06/23 04:50:12;;;;;;;17.65;10.98;;;16.40;99.90;;;;;;5006751;28;25106;-75
2022/06/23 04:52:45;;;;;;;17.02;11.77;;;16.40;99.90;;;;;;5003933;28;25112;-75
2022/06/23 04:55:18;;;;;;;19.30;10.70;;;16.50;99.90;;;;;;5017495;28;25078;-72
2022/06/23 04:58:13;;;;;;;17.80;10.95;;;16.50;99.90;;;;;;5013066;28;25090;-72
2022/06/23 05:00:51;;;;;;;19.42;11.77;;;16.60;99.90;;;;;;5007417;28;25070;-73
2022/06/23 05:03:34;;;;;;;18.50;11.00;;;16.70;99.90;;;;;;5003484;28;25152;-72
2022/06/23 05:06:05;;;;;;;;;;;16.90;99.90;;;;;;5004378;28;25064;-70
2022/06/23 05:08:33;;;;;;;19.17;11.43;;;16.90;99.90;;;;;;5005976;28;24143;-74
2022/06/23 05:11:39;;;;;;;18.17;11.38;;;17.10;99.90;;;;;;5007273;28;25060;-74
2022/06/23 05:14:12;;;;;;;21.45;11.40;;;17.00;99.90;;;;;;4953709;28;25110;-70
2022/06/23 05:16:46;;;;;;;18.63;11.52;;;17.10;99.90;;;;;;5003646;28;25062;-73
2022/06/23 05:19:22;;;;;;;18.98;10.75;;;17.20;99.90;;;;;;5017378;28;25090;-71
2022/06/23 05:21:57;;;;;;;12.82;10.48;;;17.30;99.90;;;;;;5016724;28;25070;-71
2022/06/23 05:24:26;;;;;;;15.23;11.10;;;17.40;99.90;;;;;;5003010;28;25070;-73
2022/06/23 05:27:00;;;;;;;15.20;9.80;;;17.50;99.90;;;;;;5002202;28;25077;-73
2022/06/23 05:29:31;;;;;;;20.13;11.30;;;17.60;99.90;;;;;;4999199;28;25045;-69
2022/06/23 05:32:05;;;;;;;17.10;10.77;;;17.70;99.90;;;;;;5010052;28;25054;-72
2022/06/23 05:34:37;;;;;;;14.13;10.38;;;17.80;99.90;;;;;;4993260;28;25181;-73
2022/06/23 05:37:22;;;;;;;13.57;9.73;;;17.80;99.90;;;;;;4995554;28;25099;-74
2022/06/23 05:40:15;;;;;;;21.15;10.32;;;17.90;99.90;;;;;;4989479;28;25054;-76
2022/06/23 05:42:43;;;;;;;;;;;18.00;99.90;;;;;;4988112;28;25049;-75
2022/06/23 05:45:30;;;;;;;15.48;9.48;;;18.30;99.90;;;;;;5003869;28;24071;-74
2022/06/23 05:47:57;;;;;;;16.85;9.85;;;18.30;99.90;;;;;;4999487;28;25095;-74
2022/06/23 05:50:43;;;;;;;17.15;10.63;;;18.40;99.90;;;;;;5007846;28;25068;-69
2022/06/23 05:53:15;;;;;;;14.35;9.70;;;18.50;99.90;;;;;;5009702;28;25082;-70
2022/06/23 05:55:56;;;;;;;14.13;9.05;;;18.50;99.90;;;;;;5000632;28;25101;-68
2022/06/23 05:58:35;;;;;;;12.80;9.75;;;18.60;99.90;;;;;;4999225;28;25070;-70
2022/06/23 06:01:11;;;;;;;13.45;9.63;;;18.50;99.90;;;;;;5006772;28;25107;-72
2022/06/23 06:03:43;;;;;;;14.18;9.52;;;18.60;99.90;;;;;;5006919;28;25098;-71
2022/06/23 06:06:10;;;;;;;14.95;10.02;;;18.80;99.90;;;;;;4996751;28;25136;-73
2022/06/23 06:11:31;;;;;;;16.80;10.65;;;19.10;99.90;;;;;;5004984;28;25125;-73
2022/06/23 06:13:58;;;;;;;19.70;10.10;;;19.20;99.90;;;;;;4994767;28;25115;-70
2022/06/23 06:16:24;;;;;;;12.65;9.52;;;19.40;99.90;;;;;;5006260;28;25072;-72
2022/06/23 06:18:51;;;;;;;16.27;9.75;;;19.70;99.90;;;;;;5012683;28;25066;-71
2022/06/23 06:21:18;;;;;;;16.98;9.88;;;20.10;99.90;;;;;;5015520;28;25060;-72
2022/06/23 06:24:17;;;;;;;11.80;9.15;;;20.10;99.90;;;;;;5004367;28;25110;-73
2022/06/23 06:26:46;;;;;;;12.15;8.27;;;20.30;99.90;;;;;;5012367;28;25180;-71
2022/06/23 06:29:14;;;;;;;15.27;7.57;;;20.90;99.90;;;;;;5021988;28;25079;-73
2022/06/23 06:31:47;;;;;;;17.73;8.20;;;21.30;99.90;;;;;;5008136;28;25128;-72
2022/06/23 06:34:31;;;;;;;16.90;9.55;;;21.60;99.90;;;;;;5015260;28;25071;-72
2022/06/23 06:36:59;;;;;;;11.10;8.68;;;21.40;99.90;;;;;;5005380;28;25127;-71
2022/06/23 06:39:29;;;;;;;15.15;8.60;;;21.10;99.90;;;;;;5003321;28;25070;-73
2022/06/23 06:42:19;;;;;;;15.55;8.43;;;21.10;99.90;;;;;;4999198;28;25109;-71
2022/06/23 06:44:48;;;;;;;15.23;8.32;;;21.50;99.90;;;;;;5001579;28;25159;-71
2022/06/23 06:47:28;;;;;;;16.98;8.38;;;21.70;99.90;;;;;;5008089;28;25060;-69
2022/06/23 06:49:59;;;;;;;14.90;9.23;;;21.40;99.90;;;;;;4998072;28;25142;-72
2022/06/23 06:52:27;;;;;;;15.38;9.07;;;21.30;99.90;;;;;;4998305;28;25107;-70
2022/06/23 06:54:59;;;;;;;15.77;9.00;;;21.20;99.90;;;;;;5001502;28;25085;-71
2022/06/23 06:57:25;;;;;;;;;;;21.60;99.90;;;;;;5004344;28;25059;-71
2022/06/23 06:59:56;;;;;;;15.27;8.65;;;22.20;99.90;;;;;;5009209;28;25063;-72
2022/06/23 07:02:26;;;;;;;11.52;7.53;;;22.50;99.90;;;;;;5005684;28;25117;-70
2022/06/23 07:04:59;;;;;;;14.65;8.20;;;22.10;99.90;;;;;;5007293;28;25076;-71
2022/06/23 07:07:33;;;;;;;12.95;8.93;;;22.10;99.90;;;;;;4994899;28;25149;-69
2022/06/23 07:10:06;;;;;;;14.05;8.45;;;22.10;99.90;;;;;;5003540;28;25135;-72
2022/06/23 07:12:49;;;;;;;13.80;7.65;;;22.40;99.90;;;;;;5007448;28;25137;-71
2022/06/23 07:15:41;;;;;;;13.95;7.68;;;22.70;99.90;;;;;;5007204;28;25105;-70
2022/06/23 07:18:31;;;;;;;12.73;7.97;;;23.20;99.90;;;;;;4995556;28;25126;-70
2022/06/23 07:21:17;;;;;;;20.00;9.25;;;23.00;99.90;;;;;;5005135;28;25133;-71
2022/06/23 07:23:54;;;;;;;13.48;9.95;;;22.70;98.60;;;;;;5004559;28;25068;-71
2022/06/23 07:26:59;;;;;;;10.75;8.32;;;22.10;99.90;;;;;;5004492;28;25066;-69
2022/06/23 07:29:37;;;;;;;13.00;8.35;;;22.20;99.90;;;;;;5006695;28;25076;-70
2022/06/23 07:32:29;;;;;;;13.60;8.00;;;22.90;99.90;;;;;;5012549;28;25077;-69
2022/06/23 07:35:07;;;;;;;12.82;8.15;;;23.70;99.90;;;;;;4994559;28;25062;-69
2022/06/23 07:37:41;;;;;;;16.83;8.80;;;24.30;96.20;;;;;;5003367;28;25137;-70
2022/06/23 07:40:11;;;;;;;15.85;8.25;;;24.20;93.00;;;;;;5006711;28;25136;-70
2022/06/23 07:42:37;;;;;;;13.07;9.07;;;24.20;92.70;;;;;;5004503;28;25137;-70
2022/06/23 07:45:09;;;;;;;17.65;9.63;;;23.80;92.80;;;;;;5005855;28;25092;-70
2022/06/23 07:47:35;;;;;;;14.95;10.02;;;23.50;94.80;;;;;;5005136;28;25076;-70
2022/06/23 07:50:01;;;;;;;14.00;10.30;;;23.50;96.00;;;;;;5007781;28;25070;-70
2022/06/23 07:52:26;;;;;;;18.15;9.85;;;23.40;97.10;;;;;;5000537;28;25111;-71
2022/06/23 07:54:53;;;;;;;13.70;9.68;;;23.70;96.30;;;;;;5014891;28;25126;-70
2022/06/23 07:57:19;;;;;;;19.02;9.95;;;23.50;96.40;;;;;;5009160;28;25064;-70
2022/06/23 07:59:58;;;;;;;19.38;9.90;;;23.50;96.80;;;;;;5019697;28;25047;-70
2022/06/23 08:03:03;;;;;;;14.93;8.82;;;23.30;98.90;;;;;;5004567;28;25156;-70
2022/06/23 08:05:45;;;;;;;15.38;9.27;;;24.10;99.90;;;;;;5006602;28;25062;-69
2022/06/23 08:08:21;;;;;;;12.30;8.38;;;24.60;94.60;;;;;;5004591;28;25078;-70
2022/06/23 08:12:52;;;;;;;14.13;9.85;;;25.10;93.70;;;;;;5002094;28;25067;-69
2022/06/23 08:13:37;;;;;;;15.13;9.30;;;24.00;93.90;;;;;;5015944;28;25088;-71
2022/06/23 08:19:03;;;;;;;20.02;10.60;;;24.40;94.50;;;;;;5013263;28;25088;-71
2022/06/23 08:21:35;;;;;;;15.73;9.75;;;24.30;95.60;;;;;;5022740;28;25085;-71
2022/06/23 08:24:07;;;;;;;;;;;24.70;97.00;;;;;;5021007;28;25103;-71
2022/06/23 08:26:39;;;;;;;15.03;10.63;;;24.80;94.40;;;;;;5013980;28;24078;-70
2022/06/23 08:29:10;;;;;;;15.13;9.75;;;24.30;95.40;;;;;;4999015;28;25147;-71
2022/06/23 08:31:37;;;;;;;16.73;11.75;;;24.40;97.20;;;;;;5002339;28;25058;-69
2022/06/23 08:34:02;;;;;;;19.73;10.95;;;24.10;96.70;;;;;;5008154;28;25144;-73
2022/06/23 08:36:39;;;;;;;16.60;9.98;;;24.20;98.60;;;;;;5008401;28;25090;-70
2022/06/23 08:39:28;;;;;;;22.20;10.93;;;24.50;97.40;;;;;;5028089;28;25091;-70
2022/06/23 08:42:17;;;;;;;18.02;10.30;;;24.80;96.80;;;;;;5008426;28;25146;-70
2022/06/23 08:45:07;;;;;;;19.20;11.05;;;25.20;96.70;;;;;;5002563;28;25062;-70
2022/06/23 08:47:52;;;;;;;13.55;10.25;;;25.30;93.20;;;;;;5021268;28;25099;-69
2022/06/23 08:50:37;;;;;;;16.17;10.30;;;25.10;93.90;;;;;;4988018;28;25069;-69
2022/06/23 08:53:15;;;;;;;11.93;8.93;;;25.10;97.30;;;;;;5002657;28;25093;-70
2022/06/23 08:55:53;;;;;;;14.90;9.70;;;25.40;97.00;;;;;;5010755;28;25077;-70
2022/06/23 08:58:37;;;;;;;13.60;8.18;;;25.80;94.80;;;;;;5007801;28;25147;-71
2022/06/23 09:01:13;;;;;;;16.33;9.35;;;26.60;92.30;;;;;;5017805;28;25098;-69
2022/06/23 09:04:09;;;;;;;13.05;8.93;;;27.20;89.30;;;;;;5011593;28;25050;-71
2022/06/23 09:06:43;;;;;;;19.27;8.45;;;27.70;81.60;;;;;;5009306;28;25063;-70
2022/06/23 09:09:35;;;;;;;17.90;9.15;;;28.00;76.10;;;;;;4999621;28;25056;-70
2022/06/23 09:12:26;;;;;;;17.92;9.27;;;28.10;72.90;;;;;;4993002;28;25056;-69
2022/06/23 09:15:23;;;;;;;14.63;8.95;;;28.40;69.70;;;;;;5017486;28;25118;-71
2022/06/23 09:18:12;;;;;;;16.30;8.38;;;28.10;72.20;;;;;;5004183;28;25115;-71
2022/06/23 09:20:59;;;;;;;14.50;8.65;;;28.20;74.40;;;;;;4998652;28;25066;-69
2022/06/23 09:23:43;;;;;;;20.35;9.90;;;28.70;69.90;;;;;;5000452;28;25166;-71
2022/06/23 09:26:22;;;;;;;14.98;8.57;;;28.50;65.30;;;;;;5000161;28;25075;-70
2022/06/23 09:28:57;;;;;;;13.35;8.75;;;28.40;72.00;;;;;;5017574;28;25140;-71
2022/06/23 09:32:20;;;;;;;18.17;8.93;;;28.00;75.20;;;;;;5011827;28;25132;-70
2022/06/23 09:35:16;;;;;;;20.33;9.98;;;28.30;70.00;;;;;;4962651;28;25111;-70
2022/06/23 09:38:11;;;;;;;16.55;9.07;;;27.90;78.10;;;;;;4968872;28;25042;-71
2022/06/23 09:41:00;;;;;;;17.20;9.05;;;28.60;75.40;;;;;;5008386;28;25074;-70
2022/06/23 09:43:37;;;;;;;18.95;10.13;;;29.10;71.20;;;;;;5012364;28;25065;-70
2022/06/23 09:46:13;;;;;;;16.60;10.27;;;29.00;61.90;;;;;;5016903;28;25194;-72
2022/06/23 09:48:58;;;;;;;22.85;11.10;;;28.00;76.00;;;;;;5019362;28;25089;-71
2022/06/23 09:51:26;;;;;;;17.70;12.55;;;27.50;79.00;;;;;;5005956;28;25151;-71
2022/06/23 09:54:13;;;;;;;18.42;9.68;;;27.10;85.00;;;;;;5003156;28;25056;-71
2022/06/23 09:56:57;;;;;;;15.00;10.13;;;27.20;91.40;;;;;;5025229;28;25164;-72
2022/06/23 09:59:45;;;;;;;18.35;9.18;;;28.10;82.90;;;;;;4998706;28;25168;-72
2022/06/23 10:02:56;;;;;;;16.52;10.68;;;29.00;79.20;;;;;;5005521;28;25069;-71
2022/06/23 10:05:55;;;;;;;16.63;10.10;;;28.30;75.90;;;;;;5008548;28;25141;-71
2022/06/23 10:08:58;;;;;;;23.25;10.50;;;28.30;77.60;;;;;;4997573;28;25074;-71
2022/06/23 10:12:03;;;;;;;17.95;7.93;;;28.50;78.70;;;;;;5012800;28;25075;-71
2022/06/23 10:14:59;;;;;;;22.75;10.38;;;29.20;73.60;;;;;;5008705;28;25090;-71
2022/06/23 10:17:36;;;;;;;18.92;9.38;;;29.90;63.20;;;;;;5006001;28;25063;-69
2022/06/23 10:20:24;;;;;;;17.77;10.10;;;29.50;64.70;;;;;;5020095;28;25050;-71
2022/06/23 10:23:02;;;;;;;17.67;9.68;;;29.40;70.60;;;;;;4998821;28;25083;-73
2022/06/23 10:25:28;;;;;;;16.70;8.07;;;29.90;68.30;;;;;;5004442;28;25051;-70
2022/06/23 10:28:32;;;;;;;16.55;7.63;;;30.50;64.10;;;;;;5009800;28;25129;-71
2022/06/23 10:31:17;;;;;;;20.10;7.72;;;30.70;56.70;;;;;;4993872;28;25085;-71
2022/06/23 10:34:00;;;;;;;19.63;7.25;;;30.50;54.90;;;;;;4996601;28;25058;-71
2022/06/23 10:36:38;;;;;;;17.83;7.28;;;30.90;56.30;;;;;;5002538;28;25065;-72
2022/06/23 10:39:35;;;;;;;13.77;5.97;;;30.90;50.70;;;;;;5001889;28;25092;-73
2022/06/23 10:42:14;;;;;;;14.10;6.50;;;31.00;59.60;;;;;;4994179;28;25064;-72
2022/06/23 10:44:45;;;;;;;12.43;4.80;;;31.50;53.90;;;;;;5017877;28;25129;-72
2022/06/23 10:47:26;;;;;;;13.43;7.10;;;31.60;48.80;;;;;;5010210;28;25120;-71
2022/06/23 10:50:01;;;;;;;10.57;6.25;;;31.30;43.20;;;;;;5018477;28;25077;-71
2022/06/23 10:52:51;;;;;;;16.75;5.82;;;30.80;51.70;;;;;;5006287;28;25146;-72
2022/06/23 10:55:41;;;;;;;15.93;7.20;;;31.10;59.60;;;;;;5001944;28;25131;-72
2022/06/23 10:58:13;;;;;;;17.58;6.03;;;30.90;49.30;;;;;;5002122;28;25104;-71
2022/06/23 11:01:05;;;;;;;17.85;6.15;;;30.50;59.60;;;;;;4993573;28;25142;-71
2022/06/23 11:03:30;;;;;;;19.85;6.22;;;30.90;57.40;;;;;;4998415;28;25108;-71
2022/06/23 11:06:11;;;;;;;18.10;6.22;;;31.10;55.60;;;;;;5002823;28;25060;-71
2022/06/23 11:09:24;;;;;;;24.05;8.23;;;31.10;55.40;;;;;;4996325;28;25077;-71
2022/06/23 11:12:02;;;;;;;22.02;7.68;;;31.40;45.70;;;;;;5009498;28;25097;-72
2022/06/23 11:14:39;;;;;;;14.75;6.43;;;31.60;44.20;;;;;;5006558;28;25126;-72
2022/06/23 11:17:29;;;;;;;13.18;6.20;;;31.80;47.20;;;;;;5017307;28;25065;-71
2022/06/23 11:20:27;;;;;;;14.15;7.03;;;32.00;47.00;;;;;;5004893;28;25057;-75
2022/06/23 11:22:58;;;;;;;16.08;6.10;;;31.70;45.00;;;;;;5015590;28;25076;-76
2022/06/23 11:25:42;;;;;;;;;;;32.20;43.50;;;;;;5015113;28;25324;-73
2022/06/23 11:28:30;;;;;;;16.02;8.32;;;32.30;41.80;;;;;;5023887;28;24189;-70
2022/06/23 11:31:04;;;;;;;18.90;7.93;;;31.90;34.50;;;;;;5004959;28;25068;-71
2022/06/23 11:33:45;;;;;;;13.48;7.78;;;31.20;48.30;;;;;;5008937;28;25167;-70
2022/06/23 11:36:43;;;;;;;20.73;6.63;;;31.30;52.90;;;;;;5006817;28;25151;-70
2022/06/23 11:39:43;;;;;;;15.05;6.68;;;31.50;49.10;;;;;;4994254;28;25158;-72
2022/06/23 11:42:34;;;;;;;15.65;7.05;;;31.40;53.70;;;;;;5013810;28;25070;-69
2022/06/23 11:45:10;;;;;;;18.65;6.97;;;32.00;49.20;;;;;;5003933;28;25061;-70
2022/06/23 11:47:38;;;;;;;10.27;6.18;;;32.70;42.50;;;;;;5002180;28;25068;-73
2022/06/23 11:50:35;;;;;;;15.55;7.05;;;32.80;36.70;;;;;;5010925;28;25062;-70
2022/06/23 11:53:09;;;;;;;12.40;5.45;;;31.90;39.50;;;;;;4986761;28;25112;-73
2022/06/23 11:55:51;;;;;;;15.27;6.28;;;31.40;48.70;;;;;;5010581;28;25148;-72
2022/06/23 11:58:48;;;;;;;14.68;5.68;;;31.00;51.40;;;;;;5001001;28;25112;-73
2022/06/23 12:01:16;;;;;;;13.45;5.90;;;31.10;49.40;;;;;;4994743;28;25078;-71
2022/06/23 12:04:03;;;;;;;13.90;5.38;;;31.00;52.50;;;;;;4995604;28;25139;-70
2022/06/23 12:06:59;;;;;;;11.57;4.82;;;31.00;48.10;;;;;;4995893;28;25088;-73
2022/06/23 12:10:04;;;;;;;14.55;5.10;;;31.10;54.20;;;;;;5001300;28;25141;-71
2022/06/23 12:12:33;;;;;;;8.80;4.75;;;31.50;46.70;;;;;;4991265;28;25135;-71
2022/06/23 12:15:01;;;;;;;12.85;4.95;;;31.80;42.90;;;;;;4998423;28;25119;-71
2022/06/23 12:17:37;;;;;;;13.52;5.65;;;31.70;39.80;;;;;;5011268;28;25063;-71
2022/06/23 12:20:31;;;;;;;12.57;5.18;;;31.70;44.00;;;;;;5004416;28;25071;-72
2022/06/23 12:23:07;;;;;;;12.05;4.90;;;31.90;42.00;;;;;;4999044;28;25081;-70
2022/06/23 12:25:55;;;;;;;8.93;4.63;;;32.30;36.50;;;;;;5000588;28;25116;-72
2022/06/23 12:28:42;;;;;;;11.93;4.65;;;32.10;32.90;;;;;;5004800;28;25071;-70
2022/06/23 12:31:35;;;;;;;9.23;4.90;;;32.20;35.10;;;;;;5007650;28;25110;-71
2022/06/23 12:34:04;;;;;;;10.40;4.80;;;32.10;31.90;;;;;;4992117;28;25137;-73
2022/06/23 12:36:40;;;;;;;7.75;4.47;;;32.20;27.70;;;;;;5000168;28;25148;-73
2022/06/23 12:39:14;;;;;;;9.18;4.18;;;32.30;29.00;;;;;;5003491;28;25133;-72
2022/06/23 12:41:50;;;;;;;6.38;3.90;;;31.90;22.80;;;;;;5003220;28;25127;-71
2022/06/23 12:44:33;;;;;;;12.50;4.65;;;31.80;33.60;;;;;;5008467;28;25071;-73
2022/06/23 12:47:29;;;;;;;10.52;4.15;;;31.90;40.00;;;;;;4997979;28;25068;-71
2022/06/23 12:50:09;;;;;;;8.93;3.90;;;31.50;28.20;;;;;;5013788;28;25146;-71
2022/06/23 12:52:59;;;;;;;9.68;3.95;;;31.80;38.10;;;;;;5030892;28;25054;-71
2022/06/23 12:55:50;;;;;;;9.85;4.32;;;31.90;26.80;;;;;;5016055;28;25048;-72
2022/06/23 12:58:33;;;;;;;7.70;4.43;;;31.20;35.60;;;;;;5027691;28;25082;-71
2022/06/23 13:01:10;;;;;;;9.57;3.75;;;30.90;39.60;;;;;;5021451;28;25113;-70
2022/06/23 13:03:41;;;;;;;14.40;4.43;;;31.10;42.90;;;;;;4999100;28;25108;-71
2022/06/23 13:06:34;;;;;;;10.95;3.88;;;31.40;32.50;;;;;;4996102;28;25079;-71
2022/06/23 13:09:42;;;;;;;7.50;4.05;;;31.30;33.80;;;;;;4963703;28;25146;-73
2022/06/23 13:12:28;;;;;;;8.88;4.00;;;31.10;36.60;;;;;;4993640;28;25102;-71
2022/06/23 13:15:03;;;;;;;6.68;3.70;;;31.40;35.70;;;;;;4998978;28;25074;-69
2022/06/23 13:17:33;;;;;;;10.98;3.72;;;31.60;36.00;;;;;;4998162;28;25082;-70
2022/06/23 13:20:19;;;;;;;10.68;3.60;;;31.60;33.60;;;;;;5003372;28;25055;-70
2022/06/23 13:22:59;;;;;;;7.47;3.72;;;31.30;30.40;;;;;;5003376;28;25108;-72
2022/06/23 13:25:33;;;;;;;5.20;3.70;;;31.30;34.90;;;;;;4995492;28;25053;-72
2022/06/23 13:28:00;;;;;;;8.82;3.80;;;31.20;27.90;;;;;;5002835;28;25053;-70
2022/06/23 13:30:30;;;;;;;6.32;3.08;;;31.40;33.40;;;;;;4995172;28;25093;-72
2022/06/23 13:33:06;;;;;;;8.30;3.53;;;31.50;26.60;;;;;;4990773;28;25056;-71
2022/06/23 13:35:39;;;;;;;10.82;4.05;;;31.00;26.60;;;;;;4998613;28;25086;-70
2022/06/23 13:38:10;;;;;;;9.73;3.47;;;31.00;39.70;;;;;;5013584;28;25068;-74
2022/06/23 13:41:05;;;;;;;5.85;3.42;;;30.70;27.10;;;;;;5001771;28;25126;-71
2022/06/23 13:43:41;;;;;;;5.82;2.95;;;30.80;29.30;;;;;;4994379;28;25115;-70
2022/06/23 13:46:06;;;;;;;8.95;3.40;;;30.40;36.70;;;;;;5001524;28;25099;-71
2022/06/23 13:48:48;;;;;;;8.15;3.85;;;30.50;34.80;;;;;;5002470;28;25107;-68
2022/06/23 13:51:24;;;;;;;13.57;3.90;;;30.50;38.60;;;;;;5009143;28;25137;-71